createdAt,value
2022-11-17T10:53:12.863Z,95353.44
2022-11-17T10:55:45.784Z,95345.69
2022-11-17T11:55:38.180Z,95356.34
2022-11-17T11:58:18.996Z,95366.25
2022-11-17T12:01:05.740Z,95367.63
2022-11-17T12:03:37.018Z,95365.47
2022-11-17T12:56:33.011Z,95345.44
2022-11-17T13:19:19.514Z,95337.19
2022-11-17T14:06:04.791Z,95345.94
2022-11-17T14:22:00.562Z,95344.94
2022-11-17T14:25:06.775Z,95349.75
2022-11-17T14:32:06.081Z,95346.28
2022-11-17T14:36:30.200Z,95346.06
2022-11-17T14:40:27.672Z,95348.75
2022-11-17T14:44:08.799Z,95339.47
2022-11-17T15:22:14.624Z,95326.91
2022-11-17T15:24:42.852Z,95331.03
2022-11-17T15:27:11.362Z,95332.59
2022-11-17T15:29:39.624Z,95331.94
2022-11-17T15:32:08.250Z,95329.38
2022-11-17T15:34:46.085Z,95332.53
2022-11-17T15:37:15.518Z,95331.03
2022-11-17T15:39:43.556Z,95330.91
2022-11-17T15:42:11.643Z,95330.25
2022-11-17T15:44:41.044Z,95329.09
2022-11-17T15:47:09.174Z,95330.56
2022-11-17T15:49:37.180Z,95323.00
2022-11-17T15:52:05.619Z,95321.88
2022-11-17T15:54:34.918Z,95331.72
2022-11-17T15:57:03.189Z,95324.34
2022-11-17T15:59:31.228Z,95316.84
2022-11-17T16:01:59.380Z,95316.84
2022-11-17T16:04:27.491Z,95313.56
2022-11-17T16:06:57.257Z,95317.44
2022-11-17T16:09:25.369Z,95312.22
2022-11-17T16:11:54.980Z,95311.22
2022-11-17T16:14:23.215Z,95316.97
2022-11-17T16:16:51.317Z,95323.00
2022-11-17T16:19:19.498Z,95312.53
2022-11-17T16:21:47.827Z,95317.69
2022-11-17T16:24:16.036Z,95319.47
2022-11-17T16:26:44.855Z,95315.66
2022-11-17T16:29:15.285Z,95323.38
2022-11-17T16:31:43.612Z,95321.00
2022-11-17T16:34:13.580Z,95316.78
2022-11-17T16:36:43.035Z,95321.22
2022-11-17T16:39:14.489Z,95322.09
2022-11-17T16:41:45.351Z,95316.25
2022-11-17T16:44:16.688Z,95319.94
2022-11-17T16:46:46.227Z,95312.41
2022-11-17T16:49:16.459Z,95317.97
2022-11-17T16:51:48.078Z,95318.91
2022-11-17T16:54:16.874Z,95312.47
2022-11-17T16:56:45.624Z,95310.69
2022-11-17T16:59:15.856Z,95309.28
2022-11-17T17:01:44.801Z,95310.50
2022-11-17T17:04:13.769Z,95315.41
2022-11-17T17:06:42.778Z,95318.25
2022-11-17T17:09:12.260Z,95317.72
